Time;durP1;ratioP1;P1;durP2;ratioP2;P2;SDS_P1;SDS_P2;PMS_P1;PMS_P2;Temp;Humidity;BMP_temperature;BMP_pressure;BME280_temperature;BME280_humidity;BME280_pressure;Samples;Min_cycle;Max_cycle;Signal;HPM_P1;HPM_P2
2022/11/16 00:02:11;;;;;;;102.85;48.20;;;;;;;5.66;100.00;62575.47;4988560;28;20231;-77
2022/11/16 00:04:38;;;;;;;84.40;43.13;;;;;;;5.77;100.00;62589.84;4986433;28;20219;-77
2022/11/16 00:07:06;;;;;;;90.93;45.70;;;;;;;5.65;100.00;62574.94;4987741;28;20268;-75
2022/11/16 00:09:34;;;;;;;83.85;44.40;;;;;;;5.67;100.00;62581.53;4986782;28;20192;-78
2022/11/16 00:12:02;;;;;;;86.70;46.83;;;;;;;5.62;100.00;62576.38;4987085;28;20236;-78
2022/11/16 00:14:32;;;;;;;88.80;43.20;;;;;;;5.65;100.00;62579.47;4982442;28;20492;-76
2022/11/16 00:16:59;;;;;;;82.15;44.50;;;;;;;5.65;100.00;62579.47;4985867;28;20427;-75
2022/11/16 00:19:27;;;;;;;92.32;46.22;;;;;;;5.56;100.00;62570.19;4981917;28;20201;-76
2022/11/16 00:21:54;;;;;;;93.15;45.33;;;;;;;5.59;100.00;62578.34;4967098;28;20291;-77
2022/11/16 00:24:22;;;;;;;84.68;45.55;;;;;;;5.75;100.00;62592.81;4987563;28;20254;-77
2022/11/16 00:26:53;;;;;;;85.88;43.63;;;;;;;5.80;100.00;62597.97;4988033;28;20575;-77
2022/11/16 00:29:21;;;;;;;96.22;44.92;;;;;;;5.85;100.00;62598.09;4986429;28;20196;-77
2022/11/16 00:31:49;;;;;;;74.15;41.65;;;;;;;5.71;100.00;62588.19;4984101;28;20228;-77
2022/11/16 00:34:17;;;;;;;73.18;40.15;;;;;;;5.68;100.00;62583.09;4986566;28;20203;-77
2022/11/16 00:36:45;;;;;;;75.68;40.05;;;;;;;5.67;100.00;62579.53;4987239;28;20220;-77
2022/11/16 00:39:13;;;;;;;83.30;41.08;;;;;;;5.68;100.00;62580.56;4988913;28;20200;-77
2022/11/16 00:41:41;;;;;;;75.68;40.78;;;;;;;5.61;100.00;62575.34;4985506;28;20239;-77
2022/11/16 00:44:09;;;;;;;74.90;39.47;;;;;;;5.55;100.00;62569.69;4985635;28;20528;-76
2022/11/16 00:46:36;;;;;;;75.85;41.47;;;;;;;5.53;100.00;62564.59;4986442;28;20224;-74
2022/11/16 00:49:04;;;;;;;70.47;38.30;;;;;;;5.50;100.00;62564.03;4983019;28;20207;-76
2022/11/16 00:51:31;;;;;;;64.90;37.70;;;;;;;5.46;100.00;62557.38;4987397;28;20232;-76
2022/11/16 00:53:58;;;;;;;73.10;38.28;;;;;;;5.49;100.00;62560.97;4986182;28;20272;-77
2022/11/16 00:56:25;;;;;;;63.90;35.90;;;;;;;5.42;100.00;62558.28;4986041;28;20231;-75
2022/11/16 00:58:52;;;;;;;69.97;36.47;;;;;;;5.42;100.00;62556.28;4985222;28;20207;-78
2022/11/16 01:01:21;;;;;;;69.63;38.25;;;;;;;5.51;100.00;62568.09;4984259;28;20235;-76
2022/11/16 01:03:48;;;;;;;67.20;35.53;;;;;;;5.54;100.00;62565.63;4985202;28;20210;-75
2022/11/16 01:06:16;;;;;;;67.00;35.88;;;;;;;5.60;100.00;62574.31;4985828;28;20263;-75
2022/11/16 01:08:44;;;;;;;68.28;35.72;;;;;;;5.68;100.00;62580.56;4984836;28;20200;-76
2022/11/16 01:13:58;;;;;;;54.40;30.88;;;;;;;5.72;100.00;62584.69;4973022;28;20220;-74
2022/11/16 01:16:26;;;;;;;53.42;29.55;;;;;;;5.78;100.00;62593.38;4984811;28;20236;-76
2022/11/16 01:18:55;;;;;;;46.22;27.38;;;;;;;5.80;100.00;62594.94;4984769;28;20239;-76
2022/11/16 01:21:23;;;;;;;55.38;29.15;;;;;;;5.82;100.00;62597.53;4986109;28;20235;-76
2022/11/16 01:23:50;;;;;;;43.90;25.92;;;;;;;5.78;100.00;62592.88;4985011;28;20200;-76
2022/11/16 01:26:17;;;;;;;43.38;25.15;;;;;;;5.84;100.00;62596.56;4984075;28;20231;-75
2022/11/16 01:28:45;;;;;;;50.20;26.50;;;;;;;5.82;100.00;62594.47;4985140;28;20388;-75
2022/11/16 01:31:12;;;;;;;42.20;25.00;;;;;;;5.76;100.00;62593.84;4985340;28;20236;-74
2022/11/16 01:33:40;;;;;;;41.08;25.13;;;;;;;5.80;100.00;62597.97;4984814;28;20308;-76
2022/11/16 01:36:13;;;;;;;44.33;25.48;;;;;;;5.83;100.00;62603.09;4983302;28;20224;-76
2022/11/16 01:38:41;;;;;;;42.53;24.70;;;;;;;5.83;100.00;62600.59;4986013;28;20196;-75
2022/11/16 01:41:08;;;;;;;44.55;24.83;;;;;;;5.87;100.00;62604.69;4985023;28;20244;-76
2022/11/16 01:43:57;;;;;;;45.20;26.60;;;;;;;5.81;100.00;62601.53;4983967;28;20200;-75
2022/11/16 01:46:25;;;;;;;44.75;25.00;;;;;;;5.87;100.00;62601.66;4983507;28;20287;-75
2022/11/16 01:49:00;;;;;;;61.85;33.08;;;;;;;5.76;100.00;62595.88;4985234;28;20196;-75
2022/11/16 01:51:28;;;;;;;64.90;35.95;;;;;;;5.81;100.00;62598.50;4985074;28;20231;-75
2022/11/16 01:53:55;;;;;;;68.68;35.00;;;;;;;5.74;100.00;62588.75;4983846;28;20211;-76
2022/11/16 01:56:25;;;;;;;67.70;38.80;;;;;;;5.78;100.00;62592.88;4983769;28;20258;-76
2022/11/16 01:58:53;;;;;;;78.75;40.25;;;;;;;5.80;100.00;62589.88;4985330;28;20199;-75
2022/11/16 02:01:19;;;;;;;70.05;38.85;;;;;;;5.79;100.00;62588.84;4983008;28;20259;-75
2022/11/16 02:03:46;;;;;;;69.50;37.80;;;;;;;5.77;100.00;62589.84;4984256;28;20200;-75
2022/11/16 02:06:33;;;;;;;54.90;33.05;;;;;;;5.74;100.00;62586.75;4983142;28;20235;-75
2022/11/16 02:12:26;;;;;;;72.35;37.08;;;;;;;5.63;100.00;62579.94;4984053;28;20308;-75
2022/11/16 02:15:07;;;;;;;75.90;37.72;;;;;;;5.53;100.00;62569.63;4988835;28;20219;-76
2022/11/16 02:17:44;;;;;;;67.05;37.85;;;;;;;5.43;100.00;62556.81;4989005;28;20216;-77
2022/11/16 02:20:40;;;;;;;72.65;35.95;;;;;;;5.42;100.00;62561.34;4988717;28;20348;-78
2022/11/16 02:23:44;;;;;;;71.00;38.30;;;;;;;5.39;100.00;62552.69;4989706;28;20300;-77
2022/11/16 02:26:28;;;;;;;67.53;37.47;;;;;;;5.32;100.00;62546.00;4935317;28;20234;-75
2022/11/16 02:29:16;;;;;;;65.35;34.80;;;;;;;5.30;100.00;62548.97;4988502;28;20259;-77
2022/11/16 02:31:50;;;;;;;69.00;35.75;;;;;;;5.28;100.00;62544.41;4989932;28;20456;-76
2022/11/16 02:34:19;;;;;;;65.40;35.85;;;;;;;5.27;100.00;62540.31;4988626;28;20219;-77
2022/11/16 02:36:50;;;;;;;68.65;36.65;;;;;;;5.20;100.00;62533.13;4989645;28;20220;-78
2022/11/16 02:39:23;;;;;;;67.40;38.00;;;;;;;5.20;100.00;62533.13;4988302;28;20207;-78
2022/11/16 02:41:52;;;;;;;64.00;35.30;;;;;;;5.14;100.00;62529.47;4989099;28;20231;-78
2022/11/16 02:44:27;;;;;;;56.03;31.83;;;;;;;5.00;100.00;62510.53;4987941;28;20263;-76
2022/11/16 02:46:58;;;;;;;67.50;33.97;;;;;;;4.92;100.00;62504.81;4988038;28;20220;-77
2022/11/16 02:49:27;;;;;;;72.32;34.78;;;;;;;4.89;100.00;62501.72;4987960;28;20508;-74
2022/11/16 02:51:55;;;;;;;61.95;34.22;;;;;;;4.92;100.00;62506.81;4987800;28;20227;-76
2022/11/16 02:54:23;;;;;;;65.40;35.22;;;;;;;4.93;100.00;62505.31;4988626;28;20255;-77
2022/11/16 02:56:56;;;;;;;66.30;36.00;;;;;;;4.86;100.00;62496.09;4987504;28;20299;-78
2022/11/16 02:59:31;;;;;;;68.40;34.40;;;;;;;4.82;100.00;62497.03;4988193;28;20331;-76
2022/11/16 03:02:04;;;;;;;78.35;37.25;;;;;;;4.67;100.00;62482.13;4988191;28;20294;-76
2022/11/16 03:04:38;;;;;;;69.82;36.75;;;;;;;4.67;100.00;62479.59;4986543;28;20243;-77
2022/11/16 03:07:07;;;;;;;65.50;34.88;;;;;;;4.67;100.00;62482.13;4986191;28;20499;-75
2022/11/16 03:09:37;;;;;;;65.03;34.08;;;;;;;4.59;100.00;62473.38;4988325;28;20200;-75
2022/11/16 03:12:08;;;;;;;72.75;35.95;;;;;;;4.56;100.00;62470.25;4986780;28;20462;-75
2022/11/16 03:14:42;;;;;;;76.20;37.55;;;;;;;4.52;100.00;62466.66;4986648;28;20196;-77
2022/11/16 03:17:16;;;;;;;68.35;36.33;;;;;;;4.48;100.00;62459.50;4988589;28;20199;-77
2022/11/16 03:19:49;;;;;;;71.65;38.35;;;;;;;4.45;100.00;62456.44;4988387;28;20402;-78
2022/11/16 03:22:21;;;;;;;65.53;34.08;;;;;;;4.47;100.00;62458.47;4987128;28;20220;-77
2022/11/16 03:24:49;;;;;;;58.17;31.30;;;;;;;4.43;100.00;62454.38;4986288;28;20200;-78
2022/11/16 03:27:24;;;;;;;61.50;30.50;;;;;;;4.49;100.00;62463.06;4988468;28;20200;-77
2022/11/16 03:30:03;;;;;;;59.80;27.70;;;;;;;4.46;100.00;62459.97;4988303;28;20192;-76
2022/11/16 03:32:33;;;;;;;48.60;28.10;;;;;;;4.47;100.00;62455.94;4986946;28;20223;-76
2022/11/16 03:35:04;;;;;;;58.30;30.63;;;;;;;4.50;100.00;62464.59;4988415;28;20408;-77
2022/11/16 03:37:34;;;;;;;57.88;30.17;;;;;;;4.31;100.00;62447.56;4988012;28;20199;-76
2022/11/16 03:40:03;;;;;;;83.72;37.75;;;;;;;4.17;100.00;62430.66;4988254;28;20247;-77
2022/11/16 03:42:32;;;;;;;90.15;41.58;;;;;;;4.12;100.00;62425.50;4986762;28;20235;-77
2022/11/16 03:45:01;;;;;;;88.55;43.53;;;;;;;4.13;100.00;62423.50;4985973;28;20239;-76
2022/11/16 03:47:28;;;;;;;211.85;45.25;;;;;;;4.11;100.00;62416.38;4988108;28;20196;-76
2022/11/16 03:49:57;;;;;;;133.82;38.08;;;;;;;3.89;100.00;62401.31;4987200;28;20558;-77
2022/11/16 03:52:24;;;;;;;66.63;35.58;;;;;;;3.80;100.00;62395.09;4988687;28;20276;-77
2022/11/16 03:54:51;;;;;;;67.82;35.10;;;;;;;3.54;100.00;62365.84;4987713;28;20327;-76
2022/11/16 03:57:18;;;;;;;83.13;42.00;;;;;;;3.54;100.00;62366.34;4988105;28;20200;-77
2022/11/16 03:59:45;;;;;;;83.72;39.67;;;;;;;3.58;100.00;62369.94;4986904;28;20200;-76
2022/11/16 04:02:15;;;;;;;76.05;37.50;;;;;;;3.67;100.00;62378.69;4987796;28;20231;-77
2022/11/16 04:24:17;;;;;;;52.88;27.20;;;;;;;3.82;100.00;62389.09;4971039;28;20224;-77
2022/11/16 04:29:35;;;;;;;68.63;30.90;;;;;;;3.82;100.00;62392.13;4988256;28;20359;-77
2022/11/16 04:37:51;;;;;;;51.95;29.98;;;;;;;3.94;100.00;62403.94;4968371;29;20188;-77
2022/11/16 04:40:20;;;;;;;58.33;30.25;;;;;;;3.98;100.00;62408.59;4979296;28;20226;-77
2022/11/16 04:42:50;;;;;;;55.33;30.10;;;;;;;4.04;100.00;62417.25;4985191;28;20278;-77
2022/11/16 04:48:02;;;;;;;72.05;34.03;;;;;;;4.17;100.00;62425.09;4985636;28;20203;-77
2022/11/16 04:50:30;;;;;;;58.88;31.33;;;;;;;4.32;100.00;62443.03;4982237;28;20641;-73
2022/11/16 04:52:57;;;;;;;61.95;32.92;;;;;;;4.44;100.00;62462.94;4984198;28;20231;-73
2022/11/16 04:55:25;;;;;;;70.00;34.30;;;;;;;4.30;100.00;62444.03;4985131;28;20605;-78
2022/11/16 04:57:53;;;;;;;79.80;36.83;;;;;;;4.18;100.00;62426.63;4968018;28;20197;-74
2022/11/16 05:00:21;;;;;;;80.15;33.67;;;;;;;4.08;100.00;62418.88;4978707;28;20231;-75
2022/11/16 05:02:48;;;;;;;78.70;37.65;;;;;;;4.22;100.00;62437.78;4986038;28;20231;-76
2022/11/16 05:05:15;;;;;;;104.53;34.20;;;;;;;4.23;100.00;62431.78;4978947;28;20492;-76
2022/11/16 05:07:44;;;;;;;92.47;39.75;;;;;;;3.98;100.00;62408.59;4965829;28;20212;-76
2022/11/16 05:10:12;;;;;;;109.40;42.13;;;;;;;4.03;100.00;62413.72;4984875;28;20240;-77
2022/11/16 05:12:39;;;;;;;93.95;41.15;;;;;;;3.90;100.00;62395.31;4985498;28;20208;-76
2022/11/16 05:15:07;;;;;;;99.15;41.42;;;;;;;4.00;100.00;62410.13;4981446;28;20227;-75
2022/11/16 05:17:34;;;;;;;85.22;38.42;;;;;;;3.87;100.00;62391.69;4983812;28;20247;-76
2022/11/16 05:22:54;;;;;;;80.65;37.83;;;;;;;4.18;100.00;62431.16;4983903;28;20424;-77
2022/11/16 05:25:21;;;;;;;67.22;35.35;;;;;;;4.33;100.00;62447.09;4966704;28;20259;-76
2022/11/16 05:27:48;;;;;;;74.72;34.63;;;;;;;4.50;100.00;62464.59;4981567;28;20231;-77
2022/11/16 05:30:16;;;;;;;89.53;34.83;;;;;;;4.68;100.00;62483.13;4985512;28;20404;-77
2022/11/16 05:32:43;;;;;;;82.32;37.40;;;;;;;4.86;100.00;62493.59;4985143;28;20204;-77
2022/11/16 05:35:10;;;;;;;83.15;38.40;;;;;;;4.95;100.00;62507.38;4984527;28;20331;-75
2022/11/16 05:37:37;;;;;;;81.68;36.60;;;;;;;5.10;100.00;62525.34;4979770;28;20211;-75
2022/11/16 05:40:07;;;;;;;73.22;35.42;;;;;;;5.27;100.00;62538.31;4985088;28;20273;-75
2022/11/16 05:42:34;;;;;;;72.45;34.33;;;;;;;5.34;100.00;62550.06;4985084;28;20274;-75
2022/11/16 05:45:01;;;;;;;87.63;40.53;;;;;;;5.16;100.00;62529.50;4984271;28;20219;-74
2022/11/16 05:47:27;;;;;;;79.15;38.22;;;;;;;5.32;100.00;62542.94;4983768;28;20208;-74
2022/11/16 05:49:54;;;;;;;84.80;36.35;;;;;;;5.48;100.00;62562.47;4985067;28;20243;-74
2022/11/16 05:52:21;;;;;;;86.22;42.08;;;;;;;5.59;100.00;62573.31;4984650;28;20537;-76
2022/11/16 05:54:48;;;;;;;100.75;43.55;;;;;;;5.06;100.00;62516.19;4983804;28;20519;-75
2022/11/16 05:57:16;;;;;;;97.72;45.10;;;;;;;4.92;100.00;62502.28;4984390;28;20223;-76
2022/11/16 05:59:45;;;;;;;99.82;44.55;;;;;;;4.87;100.00;62499.66;4984413;28;20564;-76
2022/11/16 06:02:11;;;;;;;103.10;48.63;;;;;;;4.93;100.00;62508.38;4984642;28;20290;-76
2022/11/16 06:04:38;;;;;;;106.68;48.33;;;;;;;4.87;100.00;62497.13;4983449;28;20207;-76
2022/11/16 06:07:05;;;;;;;110.38;49.25;;;;;;;4.51;100.00;62462.59;4985348;28;20200;-77
2022/11/16 06:09:32;;;;;;;100.00;47.30;;;;;;;4.81;100.00;62490.97;4985132;28;20504;-74
2022/11/16 06:11:59;;;;;;;108.13;49.10;;;;;;;4.67;100.00;62479.06;4984018;28;20347;-75
2022/11/16 06:14:27;;;;;;;99.72;48.58;;;;;;;4.55;100.00;62469.25;4980129;28;20358;-76
2022/11/16 06:16:54;;;;;;;92.78;46.35;;;;;;;4.82;100.00;62496.50;4983220;28;20220;-76
2022/11/16 06:19:20;;;;;;;113.95;51.42;;;;;;;4.67;100.00;62479.59;4984780;28;20284;-76
2022/11/16 06:21:47;;;;;;;112.97;50.38;;;;;;;4.76;100.00;62485.31;4983566;28;20535;-76
2022/11/16 06:24:14;;;;;;;116.80;53.47;;;;;;;4.77;100.00;62489.34;4966516;28;20205;-75
2022/11/16 06:26:41;;;;;;;115.25;53.65;;;;;;;4.87;100.00;62494.59;4967198;28;20558;-76
2022/11/16 06:29:08;;;;;;;120.82;53.30;;;;;;;4.94;100.00;62503.81;4966634;28;20251;-77
2022/11/16 06:31:37;;;;;;;107.78;50.40;;;;;;;5.19;100.00;62532.63;4984336;28;20224;-77
2022/11/16 06:34:03;;;;;;;113.97;53.10;;;;;;;5.16;100.00;62529.00;4985495;28;20548;-76
2022/11/16 06:36:30;;;;;;;120.40;52.53;;;;;;;5.39;100.00;62552.69;4985360;28;20271;-75
2022/11/16 06:38:59;;;;;;;96.22;47.53;;;;;;;5.55;100.00;62571.69;4984656;28;20407;-76
2022/11/16 06:41:26;;;;;;;103.43;48.40;;;;;;;5.62;100.00;62576.38;4991136;28;20226;-76
2022/11/16 06:43:53;;;;;;;96.13;47.42;;;;;;;5.78;100.00;62590.84;5004705;28;20281;-76
2022/11/16 06:46:20;;;;;;;99.70;47.33;;;;;;;5.97;100.00;62609.44;5004354;28;20223;-76
2022/11/16 06:48:48;;;;;;;102.63;48.42;;;;;;;6.13;100.00;62628.44;4987284;28;20231;-77
2022/11/16 06:51:15;;;;;;;99.22;48.55;;;;;;;6.19;100.00;62632.63;4970518;28;20232;-76
2022/11/16 06:53:43;;;;;;;95.88;47.33;;;;;;;6.31;100.00;62644.47;4978161;28;20211;-77
2022/11/16 06:56:13;;;;;;;89.78;48.00;;;;;;;6.35;100.00;62656.19;4984418;28;20224;-75
2022/11/16 06:58:40;;;;;;;96.20;46.90;;;;;;;6.36;100.00;62657.75;4984898;28;20204;-76
2022/11/16 07:01:08;;;;;;;89.53;47.28;;;;;;;6.47;100.00;62661.47;4979747;28;20224;-76
2022/11/16 07:03:35;;;;;;;100.70;44.45;;;;;;;6.61;100.00;62680.47;4974548;28;20225;-77
2022/11/16 07:06:07;;;;;;;94.32;46.42;;;;;;;6.73;100.00;62690.31;4971361;28;20221;-75
2022/11/16 07:08:34;;;;;;;94.40;49.28;;;;;;;6.30;100.00;62648.50;4987482;28;20200;-76
2022/11/16 07:11:03;;;;;;;97.10;50.97;;;;;;;6.48;100.00;62670.13;4985377;28;20242;-77
2022/11/16 07:13:32;;;;;;;87.00;47.03;;;;;;;6.47;100.00;62663.50;4983073;28;20235;-76
2022/11/16 07:16:03;;;;;;;109.40;53.75;;;;;;;6.61;100.00;62675.41;4978587;28;20220;-75
2022/11/16 07:18:33;;;;;;;95.57;47.25;;;;;;;6.49;100.00;62663.03;4985090;28;20200;-77
2022/11/16 07:21:07;;;;;;;104.13;50.15;;;;;;;6.57;100.00;62671.81;4976739;28;20220;-76
2022/11/16 07:23:35;;;;;;;96.85;50.17;;;;;;;6.42;100.00;62661.38;4968273;28;20240;-76
2022/11/16 07:26:03;;;;;;;90.05;48.03;;;;;;;6.67;100.00;62682.13;4969083;28;20521;-76
2022/11/16 07:28:30;;;;;;;89.50;44.88;;;;;;;6.52;100.00;62674.22;4967666;28;20197;-75
2022/11/16 07:31:01;;;;;;;83.40;42.25;;;;;;;6.79;100.00;62697.03;4979431;28;20244;-76
2022/11/16 07:33:29;;;;;;;95.15;41.22;;;;;;;6.51;100.00;62667.63;4968896;28;20561;-75
2022/11/16 07:36:01;;;;;;;75.13;39.72;;;;;;;6.75;100.00;62690.38;4986738;28;20442;-76
2022/11/16 07:38:29;;;;;;;89.63;39.40;;;;;;;6.91;100.00;62708.88;4987162;28;20224;-76
2022/11/16 07:41:00;;;;;;;87.50;37.13;;;;;;;6.93;100.00;62714.00;4987877;28;20247;-76
2022/11/16 07:43:28;;;;;;;93.00;36.15;;;;;;;7.01;100.00;62719.19;4987799;28;20318;-76
2022/11/16 07:45:57;;;;;;;82.95;35.15;;;;;;;6.95;100.00;62713.50;4988885;28;20247;-76
2022/11/16 07:48:24;;;;;;;83.13;33.92;;;;;;;7.08;100.00;62726.41;4989909;28;20230;-76
2022/11/16 07:50:51;;;;;;;89.55;36.83;;;;;;;6.97;100.00;62718.13;4987509;28;20223;-77
2022/11/16 07:53:17;;;;;;;77.00;34.60;;;;;;;6.95;100.00;62710.47;4986068;28;20208;-74
2022/11/16 07:55:52;;;;;;;82.80;34.38;;;;;;;6.80;100.00;62697.53;4986384;28;20216;-75
2022/11/16 07:58:18;;;;;;;86.72;35.63;;;;;;;7.04;100.00;62724.81;4976333;28;20222;-77
2022/11/16 08:00:45;;;;;;;87.22;36.03;;;;;;;7.15;100.00;62733.13;4985501;28;20226;-78
2022/11/16 08:03:12;;;;;;;77.22;35.47;;;;;;;7.28;100.00;62744.00;4984522;28;20255;-76
2022/11/16 08:05:39;;;;;;;68.38;27.48;;;;;;;7.35;100.00;62753.75;4986011;28;20223;-76
2022/11/16 08:08:06;;;;;;;80.43;27.20;;;;;;;7.29;100.00;62750.63;4986154;28;20200;-75
2022/11/16 08:10:33;;;;;;;64.78;30.10;;;;;;;7.39;100.00;62758.41;4989679;28;20277;-76
2022/11/16 08:13:02;;;;;;;77.95;31.00;;;;;;;7.58;100.00;62775.47;4985925;28;20206;-75
2022/11/16 08:15:29;;;;;;;75.00;31.42;;;;;;;7.73;100.00;62795.53;4986409;28;20267;-76
2022/11/16 08:17:57;;;;;;;62.08;27.15;;;;;;;7.95;100.00;62813.16;4975647;28;20205;-77
2022/11/16 08:20:24;;;;;;;62.67;26.33;;;;;;;7.90;100.00;62813.56;4976878;28;20212;-75
2022/11/16 08:22:51;;;;;;;52.65;24.15;;;;;;;8.14;100.00;62842.94;4986617;28;20231;-75
2022/11/16 08:25:18;;;;;;;58.15;26.48;;;;;;;8.25;100.00;62846.69;4980908;28;20224;-76
2022/11/16 08:27:46;;;;;;;65.00;25.13;;;;;;;7.90;100.00;62811.03;4985438;28;20198;-75
2022/11/16 08:30:15;;;;;;;60.92;26.48;;;;;;;8.15;100.00;62841.41;4981662;28;20220;-77
2022/11/16 08:32:42;;;;;;;54.42;25.75;;;;;;;8.02;100.00;62825.97;4986865;28;20196;-77
2022/11/16 08:35:09;;;;;;;53.28;24.80;;;;;;;8.15;100.00;62836.88;4986552;28;20539;-75
2022/11/16 08:37:36;;;;;;;53.42;22.73;;;;;;;8.27;100.00;62848.75;4984427;28;20210;-76
2022/11/16 08:40:03;;;;;;;56.30;22.80;;;;;;;8.13;100.00;62834.28;4973152;28;20220;-76
2022/11/16 08:42:30;;;;;;;53.15;25.05;;;;;;;8.12;100.00;62835.78;4984065;28;20211;-76
2022/11/16 08:44:56;;;;;;;49.47;23.23;;;;;;;8.48;100.00;62873.00;4984128;28;20200;-77
2022/11/16 08:47:25;;;;;;;46.00;23.63;;;;;;;8.73;100.00;62895.78;4986051;28;20291;-76
2022/11/16 08:49:52;;;;;;;56.28;23.90;;;;;;;8.86;100.00;62909.72;4978976;28;20495;-78
2022/11/16 08:52:18;;;;;;;48.28;23.75;;;;;;;9.09;100.00;62936.00;4968755;28;20243;-77
2022/11/16 08:54:46;;;;;;;43.70;23.27;;;;;;;9.26;100.00;62950.53;4984098;28;20196;-77
2022/11/16 08:57:12;;;;;;;42.53;22.08;;;;;;;9.42;100.00;62969.63;4985730;28;20228;-78
2022/11/16 08:59:39;;;;;;;38.65;22.52;;;;;;;9.20;100.00;62947.41;4984710;28;20228;-76
2022/11/16 09:02:06;;;;;;;43.58;21.65;;;;;;;8.99;100.00;62923.16;4986768;28;20196;-77
2022/11/16 09:04:35;;;;;;;50.03;23.85;;;;;;;9.06;100.00;62927.34;4985285;28;20251;-76
2022/11/16 09:07:02;;;;;;;39.00;20.38;;;;;;;9.04;100.00;62927.81;4984864;28;20243;-76
2022/11/16 09:09:29;;;;;;;42.05;23.00;;;;;;;9.22;100.00;62946.94;4986205;28;20414;-76
2022/11/16 09:11:56;;;;;;;42.60;22.70;;;;;;;9.19;100.00;62945.84;4986389;28;20543;-76
2022/11/16 09:14:23;;;;;;;39.30;21.83;;;;;;;9.55;100.00;62980.00;4982186;28;20220;-77
2022/11/16 09:16:50;;;;;;;40.35;21.27;;;;;;;9.67;100.00;62989.88;4966855;28;20217;-77
2022/11/16 09:19:16;;;;;;;32.08;19.15;;;;;;;9.76;100.00;63004.25;4966568;28;20203;-78
2022/11/16 09:21:45;;;;;;;33.72;19.38;;;;;;;9.50;100.00;62977.91;4965089;28;20217;-77
2022/11/16 09:24:12;;;;;;;34.95;20.52;;;;;;;9.49;100.00;62976.34;4967438;28;20451;-76
2022/11/16 09:26:39;;;;;;;35.00;20.25;;;;;;;9.42;100.00;62969.63;4980414;28;20278;-77
2022/11/16 09:29:06;;;;;;;35.35;20.00;;;;;;;9.35;100.00;62957.81;4986039;28;20416;-76
2022/11/16 09:31:36;;;;;;;34.15;20.67;;;;;;;9.21;100.00;62943.34;4985401;28;20523;-76
2022/11/16 09:34:03;;;;;;;35.55;20.73;;;;;;;9.15;100.00;62941.72;4985028;28;20199;-76
2022/11/16 09:36:30;;;;;;;35.72;20.65;;;;;;;9.13;100.00;62942.69;4966472;28;20232;-75
2022/11/16 09:38:59;;;;;;;41.20;22.88;;;;;;;8.92;100.00;62915.91;4967210;28;20201;-76
2022/11/16 09:41:41;;;;;;;37.95;22.75;;;;;;;8.69;100.00;62894.69;4976286;28;20262;-77
2022/11/16 09:44:19;;;;;;;44.72;25.08;;;;;;;8.55;100.00;62877.16;4985273;28;20274;-76
2022/11/16 09:46:49;;;;;;;39.83;24.15;;;;;;;8.60;100.00;62880.31;4975562;28;20220;-76
2022/11/16 09:49:20;;;;;;;51.75;27.33;;;;;;;8.55;100.00;62880.22;4974615;28;20201;-76
2022/11/16 09:51:52;;;;;;;42.78;26.30;;;;;;;8.46;100.00;62867.88;4967649;28;20291;-77
2022/11/16 09:54:24;;;;;;;33.65;21.25;;;;;;;8.25;100.00;62851.75;4966456;28;20189;-75
2022/11/16 09:56:57;;;;;;;36.92;21.02;;;;;;;8.03;100.00;62829.03;4965962;28;20264;-76
2022/11/16 09:59:28;;;;;;;42.00;22.75;;;;;;;7.90;100.00;62810.53;4966195;28;20503;-77
2022/11/16 10:01:58;;;;;;;40.83;21.90;;;;;;;7.96;100.00;62814.72;4983033;28;20223;-77
2022/11/16 10:04:35;;;;;;;38.58;23.52;;;;;;;8.02;100.00;62828.50;4984588;28;20224;-76
2022/11/16 10:07:07;;;;;;;34.13;20.58;;;;;;;8.04;100.00;62825.00;4985379;28;20219;-75
2022/11/16 10:09:36;;;;;;;37.85;21.55;;;;;;;8.08;100.00;62829.13;4983038;28;20267;-76
2022/11/16 10:12:11;;;;;;;36.33;22.40;;;;;;;8.19;100.00;62838.47;4981909;28;20267;-74
2022/11/16 10:15:11;;;;;;;41.33;24.00;;;;;;;8.35;100.00;62857.03;4979800;28;20386;-75
2022/11/16 10:17:59;;;;;;;41.03;23.98;;;;;;;8.36;100.00;62858.06;4983803;28;20210;-76
2022/11/16 10:20:50;;;;;;;39.17;23.10;;;;;;;8.56;100.00;62878.22;4985003;28;20228;-76
2022/11/16 10:23:29;;;;;;;38.95;22.73;;;;;;;8.61;100.00;62885.91;4967547;28;20539;-76
2022/11/16 10:26:06;;;;;;;41.25;23.90;;;;;;;8.70;100.00;62900.28;4973120;28;20228;-76
2022/11/16 10:28:52;;;;;;;37.22;22.67;;;;;;;8.77;100.00;62902.44;4974168;28;20203;-77
2022/11/16 10:31:27;;;;;;;37.63;22.00;;;;;;;8.60;100.00;62882.84;4965950;28;20220;-77
2022/11/16 10:33:57;;;;;;;41.58;24.25;;;;;;;8.56;100.00;62878.22;4980311;28;20200;-78
2022/11/16 10:36:27;;;;;;;52.15;26.95;;;;;;;8.56;100.00;62883.78;4984287;28;20223;-76
2022/11/16 10:38:57;;;;;;;48.78;27.48;;;;;;;8.68;100.00;62891.09;4974492;28;20392;-77
2022/11/16 10:41:33;;;;;;;53.33;29.85;;;;;;;8.65;100.00;62887.50;4970190;28;20259;-77
2022/11/16 10:44:00;;;;;;;62.03;32.78;;;;;;;8.70;100.00;62897.72;4968529;28;20271;-76
2022/11/16 10:46:33;;;;;;;50.28;27.83;;;;;;;8.74;100.00;62896.78;4973873;28;20216;-77
2022/11/16 10:49:10;;;;;;;47.53;28.48;;;;;;;8.80;100.00;62903.50;4969693;28;20464;-76
2022/11/16 10:51:37;;;;;;;55.17;27.67;;;;;;;8.74;100.00;62897.31;4984206;28;20223;-76
2022/11/16 10:54:12;;;;;;;54.95;29.52;;;;;;;8.62;100.00;62884.41;4988498;28;20247;-77
2022/11/16 10:56:44;;;;;;;55.70;28.35;;;;;;;8.67;100.00;62892.09;4988383;28;20275;-75
2022/11/16 10:59:13;;;;;;;48.40;28.13;;;;;;;8.65;100.00;62884.97;4986203;28;20433;-76
2022/11/16 11:01:42;;;;;;;51.03;28.08;;;;;;;8.61;100.00;62885.91;4987902;28;20216;-75
2022/11/16 11:04:15;;;;;;;56.72;28.10;;;;;;;8.69;100.00;62896.72;4988238;28;20304;-76
2022/11/16 11:06:42;;;;;;;52.05;27.05;;;;;;;8.70;100.00;62892.66;4987304;28;20222;-76
2022/11/16 11:09:22;;;;;;;40.72;25.75;;;;;;;8.77;100.00;62897.88;4978160;28;20200;-76
2022/11/16 11:14:59;;;;;;;43.15;24.73;;;;;;;9.31;100.00;62956.22;4981151;28;20209;-77
2022/11/16 11:17:26;;;;;;;45.05;23.88;;;;;;;9.80;100.00;63003.31;4969252;28;20200;-77
2022/11/16 11:19:58;;;;;;;44.17;25.63;;;;;;;10.21;100.00;63043.72;4969670;28;20326;-76
2022/11/16 11:22:26;;;;;;;37.35;23.85;;;;;;;10.55;100.00;63082.94;4968317;28;20241;-76
2022/11/16 11:24:53;;;;;;;35.03;21.98;;;;;;;10.90;100.00;63121.72;4975431;28;20232;-76
2022/11/16 11:27:24;;;;;;;38.83;22.55;;;;;;;10.98;100.00;63132.56;4970976;28;20209;-75
2022/11/16 11:29:57;;;;;;;35.13;22.58;;;;;;;11.24;100.00;63154.91;4969399;28;20257;-79
2022/11/16 11:32:30;;;;;;;39.58;23.17;;;;;;;11.53;100.00;63186.97;4985939;28;20208;-77
2022/11/16 11:34:59;;;;;;;29.20;20.35;;;;;;;11.61;100.00;63190.69;4985677;28;20194;-77
2022/11/16 11:37:30;;;;;;;38.20;21.80;;;;;;;11.90;100.00;63222.78;4979950;28;20354;-75
2022/11/16 11:40:17;;;;;;;34.90;19.95;;;;;;;12.17;100.00;63252.78;4984929;28;20196;-77
2022/11/16 11:42:53;;;;;;;37.08;22.08;;;;;;;12.03;100.00;63238.28;4985541;28;20188;-76
2022/11/16 11:45:24;;;;;;;32.58;21.58;;;;;;;12.07;100.00;63242.44;4981431;28;20235;-76
2022/11/16 11:47:56;;;;;;;37.28;22.65;;;;;;;12.07;100.00;63239.88;4968479;28;20280;-76
2022/11/16 11:50:27;;;;;;;43.47;26.75;;;;;;;12.37;100.00;63274.03;4972869;28;20275;-76
2022/11/16 11:53:02;;;;;;;38.75;22.55;;;;;;;12.29;100.00;63262.66;4988670;28;20196;-76
2022/11/16 11:55:29;;;;;;;36.35;22.80;;;;;;;12.15;100.00;63246.13;4987092;28;20224;-76
2022/11/16 11:57:59;;;;;;;35.67;21.98;;;;;;;12.16;100.00;63252.28;4986623;28;20200;-75
2022/11/16 12:00:26;;;;;;;45.10;25.17;;;;;;;12.45;99.42;63281.81;4971622;28;20227;-76
2022/11/16 12:03:25;;;;;;;44.20;26.38;;;;;;;12.59;99.07;63293.78;4972249;28;20196;-77
2022/11/16 12:06:06;;;;;;;35.35;22.35;;;;;;;12.38;98.01;63275.09;4958976;28;20220;-77
2022/11/16 12:09:03;;;;;;;38.95;23.60;;;;;;;12.25;99.94;63258.53;4983878;28;20210;-76
2022/11/16 12:11:44;;;;;;;37.63;21.15;;;;;;;12.45;99.18;63282.34;4986702;28;20246;-76
2022/11/16 12:14:24;;;;;;;37.65;24.23;;;;;;;12.90;97.19;63325.94;4979682;28;20203;-76